CEB390 RPMY-RPLL
Flight info
| Callsign | CEB390 |
|---|---|
| Flight time | 1h 7m |
| Altitude | 36000 |
| Route | LIRYX5A LIRYX B473 LAIYA LAIYA3R |
| Aircraft | A321/M-SDE3FGHIRWY/LB1 |
Departure
| Time | 2026-05-08 12:41 |
|---|---|
| Airport | Laguindingan International Airport (RPMY) |
Arrival
| Time | 2026-05-08 13:48 |
|---|---|
| Airport | Ninoy Aquino International Airport (RPLL) |
| Time | Latitude | Longitude | Altitude | Speed | Heading |
|---|---|---|---|---|---|
| 2026-05-08 12:24 | 8.60915 | 124.45786 | 181 ft | 0 kts | 175° |
| 2026-05-08 12:31 | 8.60922 | 124.45785 | 222 ft | 4 kts | 175° |
| 2026-05-08 12:32 | 8.60948 | 124.45782 | 163 ft | 3 kts | 171° |
| 2026-05-08 12:32 | 8.60970 | 124.45778 | 179 ft | 3 kts | 159° |
| 2026-05-08 12:32 | 8.60982 | 124.45772 | 179 ft | 2 kts | 129° |
| 2026-05-08 12:32 | 8.60988 | 124.45763 | 179 ft | 2 kts | 96° |
| 2026-05-08 12:33 | 8.60989 | 124.45751 | 178 ft | 2 kts | 86° |
| 2026-05-08 12:33 | 8.60988 | 124.45740 | 178 ft | 1 kts | 84° |
| 2026-05-08 12:34 | 8.60989 | 124.45756 | 178 ft | 7 kts | 85° |
| 2026-05-08 12:35 | 8.60995 | 124.45822 | 179 ft | 13 kts | 86° |
| 2026-05-08 12:35 | 8.61002 | 124.45919 | 181 ft | 11 kts | 85° |
| 2026-05-08 12:35 | 8.61043 | 124.45973 | 180 ft | 10 kts | 15° |
| 2026-05-08 12:35 | 8.61119 | 124.45971 | 178 ft | 12 kts | 355° |
| 2026-05-08 12:36 | 8.61200 | 124.45967 | 176 ft | 12 kts | 7° |
| 2026-05-08 12:36 | 8.61248 | 124.46021 | 176 ft | 10 kts | 82° |
| 2026-05-08 12:36 | 8.61257 | 124.46110 | 177 ft | 18 kts | 87° |
| 2026-05-08 12:36 | 8.61266 | 124.46260 | 177 ft | 22 kts | 86° |
| 2026-05-08 12:37 | 8.61280 | 124.46416 | 173 ft | 23 kts | 86° |
| 2026-05-08 12:37 | 8.61264 | 124.46528 | 171 ft | 14 kts | 115° |
| 2026-05-08 12:37 | 8.61271 | 124.46587 | 170 ft | 7 kts | 7° |
| 2026-05-08 12:37 | 8.61289 | 124.46553 | 171 ft | 5 kts | 277° |
| 2026-05-08 12:38 | 8.61289 | 124.46542 | 171 ft | 0 kts | 265° |
| 2026-05-08 12:40 | 8.61288 | 124.46540 | 165 ft | 2 kts | 265° |
| 2026-05-08 12:40 | 8.61277 | 124.46389 | 174 ft | 55 kts | 265° |
| 2026-05-08 12:40 | 8.61248 | 124.46016 | 176 ft | 101 kts | 266° |
| 2026-05-08 12:40 | 8.61177 | 124.45109 | 171 ft | 156 kts | 265° |
| 2026-05-08 12:41 | 8.61094 | 124.43928 | 523 ft | 169 kts | 265° |
| 2026-05-08 12:41 | 8.61011 | 124.42751 | 1191 ft | 167 kts | 268° |
| 2026-05-08 12:41 | 8.61374 | 124.41665 | 1768 ft | 167 kts | 319° |
| 2026-05-08 12:41 | 8.62383 | 124.41126 | 2263 ft | 168 kts | 343° |
| 2026-05-08 12:42 | 8.63544 | 124.40715 | 2448 ft | 187 kts | 342° |
| 2026-05-08 12:42 | 8.64821 | 124.40245 | 2588 ft | 203 kts | 342° |
| 2026-05-08 12:42 | 8.66193 | 124.39733 | 2707 ft | 217 kts | 341° |
| 2026-05-08 12:42 | 8.67657 | 124.39182 | 2816 ft | 234 kts | 341° |
| 2026-05-08 12:43 | 8.69264 | 124.38571 | 2999 ft | 258 kts | 341° |
| 2026-05-08 12:43 | 8.70977 | 124.37913 | 3579 ft | 266 kts | 340° |
| 2026-05-08 12:43 | 8.72719 | 124.37239 | 4287 ft | 270 kts | 340° |
| 2026-05-08 12:43 | 8.74485 | 124.36556 | 5008 ft | 273 kts | 340° |
| 2026-05-08 12:44 | 8.76271 | 124.35865 | 5700 ft | 276 kts | 340° |
| 2026-05-08 12:44 | 8.78077 | 124.35166 | 6382 ft | 280 kts | 341° |
| 2026-05-08 12:44 | 8.79906 | 124.34458 | 7013 ft | 283 kts | 341° |
| 2026-05-08 12:44 | 8.81755 | 124.33742 | 7648 ft | 286 kts | 341° |
| 2026-05-08 12:45 | 8.83624 | 124.33018 | 8288 ft | 289 kts | 341° |
| 2026-05-08 12:45 | 8.85514 | 124.32285 | 8922 ft | 292 kts | 341° |
| 2026-05-08 12:45 | 8.87422 | 124.31548 | 9551 ft | 295 kts | 341° |
| 2026-05-08 12:45 | 8.89350 | 124.30804 | 10114 ft | 300 kts | 341° |
| 2026-05-08 12:46 | 8.91365 | 124.30029 | 10234 ft | 320 kts | 341° |
| 2026-05-08 12:46 | 8.93509 | 124.29201 | 10366 ft | 339 kts | 341° |
| 2026-05-08 12:46 | 8.95765 | 124.28327 | 10617 ft | 352 kts | 341° |
| 2026-05-08 12:46 | 8.98069 | 124.27432 | 11095 ft | 357 kts | 341° |
| 2026-05-08 12:47 | 9.00402 | 124.26527 | 11626 ft | 361 kts | 341° |
| 2026-05-08 12:47 | 9.02739 | 124.25568 | 12151 ft | 365 kts | 336° |
| 2026-05-08 12:47 | 9.04972 | 124.24306 | 12675 ft | 370 kts | 332° |
| 2026-05-08 12:47 | 9.07208 | 124.23003 | 13202 ft | 373 kts | 332° |
| 2026-05-08 12:48 | 9.09467 | 124.21689 | 13723 ft | 376 kts | 332° |
| 2026-05-08 12:48 | 9.11747 | 124.20363 | 14177 ft | 379 kts | 332° |
| 2026-05-08 12:48 | 9.14044 | 124.19031 | 14639 ft | 382 kts | 332° |
| 2026-05-08 12:48 | 9.16364 | 124.17687 | 15099 ft | 385 kts | 332° |
| 2026-05-08 12:49 | 9.18701 | 124.16333 | 15546 ft | 389 kts | 332° |
| 2026-05-08 12:49 | 9.21053 | 124.14967 | 16001 ft | 391 kts | 332° |
| 2026-05-08 12:49 | 9.23423 | 124.13590 | 16432 ft | 394 kts | 332° |
| 2026-05-08 12:49 | 9.25812 | 124.12201 | 16862 ft | 397 kts | 332° |
| 2026-05-08 12:50 | 9.28220 | 124.10804 | 17285 ft | 400 kts | 332° |
| 2026-05-08 12:50 | 9.30644 | 124.09396 | 17704 ft | 403 kts | 332° |
| 2026-05-08 12:50 | 9.33086 | 124.07976 | 18107 ft | 406 kts | 332° |
| 2026-05-08 12:50 | 9.35543 | 124.06550 | 18462 ft | 408 kts | 332° |
| 2026-05-08 12:51 | 9.38013 | 124.05115 | 18815 ft | 410 kts | 332° |
| 2026-05-08 12:51 | 9.42997 | 124.02238 | 19517 ft | 414 kts | 332° |
| 2026-05-08 12:51 | 9.45506 | 124.00794 | 19848 ft | 416 kts | 332° |
| 2026-05-08 12:52 | 9.48031 | 123.99342 | 20188 ft | 418 kts | 332° |
| 2026-05-08 12:52 | 9.53108 | 123.96402 | 20870 ft | 422 kts | 332° |
| 2026-05-08 12:52 | 9.55661 | 123.94916 | 21203 ft | 424 kts | 332° |
| 2026-05-08 12:53 | 9.58226 | 123.93424 | 21526 ft | 426 kts | 332° |
| 2026-05-08 12:53 | 9.60772 | 123.91944 | 21853 ft | 428 kts | 332° |
| 2026-05-08 12:53 | 9.63363 | 123.90438 | 22173 ft | 430 kts | 332° |
| 2026-05-08 12:53 | 9.65965 | 123.88923 | 22486 ft | 433 kts | 332° |
| 2026-05-08 12:54 | 9.68581 | 123.87399 | 22794 ft | 435 kts | 332° |
| 2026-05-08 12:54 | 9.71207 | 123.85870 | 23111 ft | 436 kts | 332° |
| 2026-05-08 12:54 | 9.73849 | 123.84335 | 23426 ft | 438 kts | 332° |
| 2026-05-08 12:54 | 9.76499 | 123.82795 | 23698 ft | 440 kts | 332° |
| 2026-05-08 12:55 | 9.79162 | 123.81249 | 23959 ft | 442 kts | 332° |
| 2026-05-08 12:55 | 9.81832 | 123.79695 | 24215 ft | 444 kts | 332° |
| 2026-05-08 12:55 | 9.84516 | 123.78132 | 24476 ft | 445 kts | 332° |
| 2026-05-08 12:55 | 9.87206 | 123.76565 | 24736 ft | 447 kts | 332° |
| 2026-05-08 12:56 | 9.89905 | 123.74994 | 24993 ft | 449 kts | 331° |
| 2026-05-08 12:56 | 9.92618 | 123.73415 | 25251 ft | 450 kts | 331° |
| 2026-05-08 12:56 | 9.95340 | 123.71830 | 25495 ft | 452 kts | 331° |
| 2026-05-08 12:56 | 9.98070 | 123.70238 | 25742 ft | 454 kts | 331° |
| 2026-05-08 12:57 | 10.00808 | 123.68637 | 25987 ft | 455 kts | 331° |
| 2026-05-08 12:57 | 10.03559 | 123.67028 | 26230 ft | 457 kts | 331° |
| 2026-05-08 12:57 | 10.06317 | 123.65416 | 26471 ft | 459 kts | 331° |
| 2026-05-08 12:57 | 10.09086 | 123.63800 | 26710 ft | 460 kts | 331° |
| 2026-05-08 12:58 | 10.11868 | 123.62179 | 26951 ft | 462 kts | 331° |
| 2026-05-08 12:58 | 10.14661 | 123.60552 | 27186 ft | 464 kts | 331° |
| 2026-05-08 12:58 | 10.17463 | 123.58920 | 27418 ft | 465 kts | 331° |
| 2026-05-08 12:58 | 10.19355 | 123.57815 | 27573 ft | 466 kts | 330° |
| 2026-05-08 12:59 | 10.23093 | 123.55630 | 27875 ft | 469 kts | 330° |
| 2026-05-08 12:59 | 10.25924 | 123.53974 | 28119 ft | 469 kts | 330° |
| 2026-05-08 12:59 | 10.28753 | 123.52318 | 28381 ft | 470 kts | 330° |
| 2026-05-08 12:59 | 10.31590 | 123.50657 | 28614 ft | 471 kts | 330° |
| 2026-05-08 13:00 | 10.34433 | 123.48996 | 28813 ft | 473 kts | 330° |
| 2026-05-08 13:00 | 10.37292 | 123.47328 | 29024 ft | 474 kts | 330° |
| 2026-05-08 13:00 | 10.40157 | 123.45659 | 29237 ft | 476 kts | 330° |
| 2026-05-08 13:00 | 10.43028 | 123.43982 | 29438 ft | 477 kts | 330° |
| 2026-05-08 13:01 | 10.45910 | 123.42297 | 29638 ft | 479 kts | 330° |
| 2026-05-08 13:01 | 10.48802 | 123.40604 | 29837 ft | 480 kts | 330° |
| 2026-05-08 13:01 | 10.51705 | 123.38906 | 30027 ft | 482 kts | 330° |
| 2026-05-08 13:01 | 10.54619 | 123.37207 | 30213 ft | 483 kts | 330° |
| 2026-05-08 13:02 | 10.57534 | 123.35511 | 30483 ft | 482 kts | 330° |
| 2026-05-08 13:02 | 10.60443 | 123.33817 | 30758 ft | 481 kts | 330° |
| 2026-05-08 13:02 | 10.63343 | 123.32127 | 31024 ft | 481 kts | 329° |
| 2026-05-08 13:02 | 10.66239 | 123.30437 | 31286 ft | 480 kts | 329° |
| 2026-05-08 13:03 | 10.69131 | 123.28745 | 31552 ft | 479 kts | 329° |
| 2026-05-08 13:03 | 10.72015 | 123.27056 | 31816 ft | 478 kts | 329° |
| 2026-05-08 13:03 | 10.74898 | 123.25365 | 32079 ft | 478 kts | 329° |
| 2026-05-08 13:03 | 10.77774 | 123.23679 | 32355 ft | 477 kts | 329° |
| 2026-05-08 13:04 | 10.80653 | 123.21993 | 32609 ft | 477 kts | 329° |
| 2026-05-08 13:04 | 10.83523 | 123.20310 | 32882 ft | 476 kts | 329° |
| 2026-05-08 13:04 | 10.86391 | 123.18625 | 33152 ft | 476 kts | 329° |
| 2026-05-08 13:04 | 10.89253 | 123.16941 | 33430 ft | 475 kts | 329° |
| 2026-05-08 13:05 | 10.92111 | 123.15261 | 33704 ft | 474 kts | 329° |
| 2026-05-08 13:05 | 10.94967 | 123.13588 | 33970 ft | 474 kts | 329° |
| 2026-05-08 13:05 | 10.97819 | 123.11918 | 34213 ft | 473 kts | 329° |
| 2026-05-08 13:05 | 11.00666 | 123.10251 | 34473 ft | 471 kts | 329° |
| 2026-05-08 13:06 | 11.03504 | 123.08590 | 34733 ft | 470 kts | 329° |
| 2026-05-08 13:06 | 11.06330 | 123.06933 | 34998 ft | 468 kts | 329° |
| 2026-05-08 13:06 | 11.09149 | 123.05278 | 35264 ft | 467 kts | 328° |
| 2026-05-08 13:06 | 11.11957 | 123.03627 | 35523 ft | 465 kts | 328° |
| 2026-05-08 13:07 | 11.14757 | 123.01978 | 35786 ft | 464 kts | 328° |
| 2026-05-08 13:07 | 11.17549 | 123.00331 | 35892 ft | 463 kts | 328° |
| 2026-05-08 13:07 | 11.23060 | 122.97087 | 35908 ft | 459 kts | 328° |
| 2026-05-08 13:08 | 11.28624 | 122.93819 | 35913 ft | 458 kts | 328° |
| 2026-05-08 13:08 | 11.34112 | 122.90594 | 35913 ft | 458 kts | 328° |
| 2026-05-08 13:09 | 11.39667 | 122.87322 | 35916 ft | 458 kts | 328° |
| 2026-05-08 13:09 | 11.45180 | 122.84066 | 35917 ft | 458 kts | 328° |
| 2026-05-08 13:10 | 11.50697 | 122.80813 | 35921 ft | 458 kts | 328° |
| 2026-05-08 13:10 | 11.56184 | 122.77581 | 35923 ft | 459 kts | 328° |
| 2026-05-08 13:11 | 11.61687 | 122.74285 | 35922 ft | 458 kts | 326° |
| 2026-05-08 13:11 | 11.67022 | 122.70734 | 35930 ft | 458 kts | 324° |
| 2026-05-08 13:12 | 11.72280 | 122.67075 | 35932 ft | 457 kts | 324° |
| 2026-05-08 13:12 | 11.77558 | 122.63461 | 35935 ft | 457 kts | 324° |
| 2026-05-08 13:13 | 11.82868 | 122.59894 | 35936 ft | 457 kts | 325° |
| 2026-05-08 13:13 | 11.88177 | 122.56338 | 35939 ft | 457 kts | 324° |
| 2026-05-08 13:14 | 11.93480 | 122.52766 | 35937 ft | 456 kts | 324° |
| 2026-05-08 13:14 | 11.98765 | 122.49186 | 35934 ft | 456 kts | 324° |
| 2026-05-08 13:15 | 12.04054 | 122.45615 | 35934 ft | 456 kts | 324° |
| 2026-05-08 13:15 | 12.09346 | 122.42052 | 35936 ft | 455 kts | 324° |
| 2026-05-08 13:16 | 12.14625 | 122.38482 | 35935 ft | 455 kts | 324° |
| 2026-05-08 13:16 | 12.19893 | 122.34916 | 35937 ft | 454 kts | 324° |
| 2026-05-08 13:17 | 12.25161 | 122.31349 | 35933 ft | 454 kts | 324° |
| 2026-05-08 13:17 | 12.30422 | 122.27788 | 35933 ft | 453 kts | 324° |
| 2026-05-08 13:18 | 12.35675 | 122.24238 | 35938 ft | 452 kts | 324° |
| 2026-05-08 13:18 | 12.40903 | 122.20673 | 35933 ft | 451 kts | 324° |
| 2026-05-08 13:19 | 12.46089 | 122.17059 | 35932 ft | 451 kts | 324° |
| 2026-05-08 13:19 | 12.51268 | 122.13431 | 35883 ft | 452 kts | 324° |
| 2026-05-08 13:20 | 12.53863 | 122.11620 | 35641 ft | 451 kts | 324° |
| 2026-05-08 13:20 | 12.56457 | 122.09815 | 35409 ft | 451 kts | 324° |
| 2026-05-08 13:20 | 12.59057 | 122.08010 | 35177 ft | 452 kts | 325° |
| 2026-05-08 13:20 | 12.61661 | 122.06205 | 34947 ft | 452 kts | 325° |
| 2026-05-08 13:21 | 12.64263 | 122.04399 | 34733 ft | 453 kts | 325° |
| 2026-05-08 13:21 | 12.66871 | 122.02586 | 34495 ft | 453 kts | 325° |
| 2026-05-08 13:21 | 12.69481 | 122.00768 | 34067 ft | 455 kts | 325° |
| 2026-05-08 13:21 | 12.72122 | 121.98928 | 33091 ft | 463 kts | 325° |
| 2026-05-08 13:22 | 12.74738 | 121.97106 | 32599 ft | 459 kts | 325° |
| 2026-05-08 13:22 | 12.77372 | 121.95271 | 32023 ft | 457 kts | 325° |
| 2026-05-08 13:22 | 12.79995 | 121.93443 | 31453 ft | 456 kts | 325° |
| 2026-05-08 13:22 | 12.82616 | 121.91617 | 30887 ft | 455 kts | 325° |
| 2026-05-08 13:23 | 12.85231 | 121.89798 | 30322 ft | 454 kts | 325° |
| 2026-05-08 13:23 | 12.86992 | 121.88572 | 29934 ft | 454 kts | 324° |
| 2026-05-08 13:23 | 12.90442 | 121.86168 | 29153 ft | 451 kts | 325° |
| 2026-05-08 13:23 | 12.93022 | 121.84365 | 28609 ft | 447 kts | 325° |
| 2026-05-08 13:24 | 12.94753 | 121.83155 | 28234 ft | 445 kts | 325° |
| 2026-05-08 13:24 | 12.98131 | 121.80797 | 27523 ft | 441 kts | 325° |
| 2026-05-08 13:24 | 13.00662 | 121.79031 | 26990 ft | 439 kts | 326° |
| 2026-05-08 13:24 | 13.02364 | 121.77845 | 26641 ft | 437 kts | 326° |
| 2026-05-08 13:25 | 13.05677 | 121.75534 | 25962 ft | 433 kts | 326° |
| 2026-05-08 13:25 | 13.07322 | 121.74387 | 25635 ft | 431 kts | 326° |
| 2026-05-08 13:25 | 13.09792 | 121.72663 | 25130 ft | 428 kts | 326° |
| 2026-05-08 13:25 | 13.12241 | 121.70952 | 24661 ft | 424 kts | 326° |
| 2026-05-08 13:26 | 13.14673 | 121.69253 | 24184 ft | 421 kts | 327° |
| 2026-05-08 13:26 | 13.17083 | 121.67566 | 23702 ft | 418 kts | 327° |
| 2026-05-08 13:26 | 13.19477 | 121.65889 | 23186 ft | 415 kts | 327° |
| 2026-05-08 13:26 | 13.21850 | 121.64226 | 22701 ft | 410 kts | 327° |
| 2026-05-08 13:27 | 13.24195 | 121.62585 | 22235 ft | 406 kts | 327° |
| 2026-05-08 13:27 | 13.26513 | 121.60964 | 21759 ft | 401 kts | 327° |
| 2026-05-08 13:27 | 13.28811 | 121.59357 | 21289 ft | 398 kts | 327° |
| 2026-05-08 13:27 | 13.31086 | 121.57763 | 20811 ft | 395 kts | 328° |
| 2026-05-08 13:28 | 13.33345 | 121.56179 | 20344 ft | 392 kts | 328° |
| 2026-05-08 13:28 | 13.35590 | 121.54602 | 19867 ft | 390 kts | 327° |
| 2026-05-08 13:28 | 13.37819 | 121.53039 | 19395 ft | 388 kts | 328° |
| 2026-05-08 13:28 | 13.40050 | 121.51477 | 18926 ft | 387 kts | 328° |
| 2026-05-08 13:29 | 13.42271 | 121.49926 | 18459 ft | 386 kts | 328° |
| 2026-05-08 13:29 | 13.44488 | 121.48376 | 17955 ft | 385 kts | 328° |
| 2026-05-08 13:29 | 13.46689 | 121.46834 | 17473 ft | 382 kts | 328° |
| 2026-05-08 13:29 | 13.48877 | 121.45297 | 17019 ft | 379 kts | 328° |
| 2026-05-08 13:30 | 13.51048 | 121.43770 | 16568 ft | 377 kts | 328° |
| 2026-05-08 13:30 | 13.53211 | 121.42258 | 16109 ft | 375 kts | 328° |
| 2026-05-08 13:30 | 13.55335 | 121.40778 | 15938 ft | 364 kts | 328° |
| 2026-05-08 13:30 | 13.57408 | 121.39333 | 15636 ft | 358 kts | 328° |
| 2026-05-08 13:31 | 13.59459 | 121.37905 | 15259 ft | 354 kts | 328° |
| 2026-05-08 13:31 | 13.61491 | 121.36488 | 14876 ft | 352 kts | 328° |
| 2026-05-08 13:31 | 13.63510 | 121.35079 | 14493 ft | 350 kts | 328° |
| 2026-05-08 13:31 | 13.65517 | 121.33677 | 14123 ft | 348 kts | 328° |
| 2026-05-08 13:32 | 13.67509 | 121.32281 | 13758 ft | 346 kts | 328° |
| 2026-05-08 13:32 | 13.69490 | 121.30892 | 13347 ft | 344 kts | 328° |
| 2026-05-08 13:32 | 13.71456 | 121.29512 | 12936 ft | 341 kts | 328° |
| 2026-05-08 13:32 | 13.73407 | 121.28141 | 12553 ft | 338 kts | 328° |
| 2026-05-08 13:33 | 13.75344 | 121.26778 | 12171 ft | 336 kts | 328° |
| 2026-05-08 13:33 | 13.77262 | 121.25427 | 11792 ft | 333 kts | 328° |
| 2026-05-08 13:33 | 13.79170 | 121.24084 | 11415 ft | 331 kts | 328° |
| 2026-05-08 13:33 | 13.81059 | 121.22750 | 11032 ft | 328 kts | 328° |
| 2026-05-08 13:34 | 13.82935 | 121.21424 | 10661 ft | 326 kts | 328° |
| 2026-05-08 13:34 | 13.84794 | 121.20109 | 10383 ft | 320 kts | 328° |
| 2026-05-08 13:34 | 13.86596 | 121.18830 | 10258 ft | 309 kts | 328° |
| 2026-05-08 13:34 | 13.88337 | 121.17589 | 10142 ft | 300 kts | 328° |
| 2026-05-08 13:35 | 13.90046 | 121.16366 | 10022 ft | 298 kts | 328° |
| 2026-05-08 13:35 | 13.91746 | 121.15148 | 10020 ft | 298 kts | 328° |
| 2026-05-08 13:35 | 13.93450 | 121.13929 | 10026 ft | 298 kts | 328° |
| 2026-05-08 13:35 | 13.95154 | 121.12710 | 10023 ft | 298 kts | 328° |
| 2026-05-08 13:36 | 13.96857 | 121.11491 | 10023 ft | 298 kts | 328° |
| 2026-05-08 13:36 | 13.98561 | 121.10271 | 10023 ft | 298 kts | 328° |
| 2026-05-08 13:36 | 14.00265 | 121.09051 | 10025 ft | 299 kts | 328° |
| 2026-05-08 13:36 | 14.01950 | 121.07846 | 10026 ft | 299 kts | 328° |
| 2026-05-08 13:37 | 14.03680 | 121.06611 | 10023 ft | 299 kts | 328° |
| 2026-05-08 13:37 | 14.05389 | 121.05393 | 10017 ft | 298 kts | 328° |
| 2026-05-08 13:37 | 14.07082 | 121.04184 | 9610 ft | 294 kts | 328° |
| 2026-05-08 13:37 | 14.08759 | 121.02983 | 9032 ft | 293 kts | 328° |
| 2026-05-08 13:38 | 14.10425 | 121.01789 | 8452 ft | 291 kts | 328° |
| 2026-05-08 13:38 | 14.12090 | 121.00596 | 8003 ft | 291 kts | 328° |
| 2026-05-08 13:38 | 14.13726 | 120.99427 | 7647 ft | 289 kts | 328° |
| 2026-05-08 13:38 | 14.15373 | 120.98249 | 7281 ft | 288 kts | 328° |
| 2026-05-08 13:39 | 14.17011 | 120.97073 | 6932 ft | 286 kts | 328° |
| 2026-05-08 13:39 | 14.18634 | 120.95901 | 6582 ft | 284 kts | 328° |
| 2026-05-08 13:39 | 14.20242 | 120.94739 | 6218 ft | 282 kts | 328° |
| 2026-05-08 13:39 | 14.21845 | 120.93580 | 5820 ft | 281 kts | 328° |
| 2026-05-08 13:40 | 14.23447 | 120.92425 | 5403 ft | 281 kts | 328° |
| 2026-05-08 13:40 | 14.25030 | 120.91286 | 5205 ft | 272 kts | 328° |
| 2026-05-08 13:40 | 14.26546 | 120.90196 | 5100 ft | 260 kts | 328° |
| 2026-05-08 13:40 | 14.27977 | 120.89162 | 5007 ft | 244 kts | 328° |
| 2026-05-08 13:41 | 14.29331 | 120.88185 | 4875 ft | 231 kts | 328° |
| 2026-05-08 13:41 | 14.30629 | 120.87249 | 4648 ft | 225 kts | 328° |
| 2026-05-08 13:41 | 14.31909 | 120.86325 | 4225 ft | 225 kts | 328° |
| 2026-05-08 13:41 | 14.33191 | 120.85402 | 3795 ft | 225 kts | 328° |
| 2026-05-08 13:42 | 14.34491 | 120.84468 | 3421 ft | 225 kts | 328° |
| 2026-05-08 13:42 | 14.35773 | 120.83547 | 3119 ft | 224 kts | 328° |
| 2026-05-08 13:42 | 14.37114 | 120.82775 | 2806 ft | 219 kts | 346° |
| 2026-05-08 13:42 | 14.38583 | 120.82663 | 2552 ft | 210 kts | 12° |
| 2026-05-08 13:43 | 14.39935 | 120.83147 | 2506 ft | 205 kts | 36° |
| 2026-05-08 13:43 | 14.40946 | 120.84139 | 2512 ft | 199 kts | 60° |
| 2026-05-08 13:43 | 14.41625 | 120.85341 | 2511 ft | 183 kts | 62° |
| 2026-05-08 13:43 | 14.42217 | 120.86404 | 2506 ft | 164 kts | 62° |
| 2026-05-08 13:44 | 14.42769 | 120.87396 | 2507 ft | 156 kts | 63° |
| 2026-05-08 13:44 | 14.43307 | 120.88364 | 2422 ft | 154 kts | 62° |
| 2026-05-08 13:44 | 14.43838 | 120.89319 | 2274 ft | 153 kts | 62° |
| 2026-05-08 13:44 | 14.44358 | 120.90253 | 2121 ft | 146 kts | 63° |
| 2026-05-08 13:45 | 14.44858 | 120.91151 | 1923 ft | 143 kts | 62° |
| 2026-05-08 13:45 | 14.45350 | 120.92037 | 1735 ft | 141 kts | 62° |
| 2026-05-08 13:45 | 14.45837 | 120.92911 | 1564 ft | 140 kts | 62° |
| 2026-05-08 13:45 | 14.46322 | 120.93784 | 1379 ft | 141 kts | 62° |
| 2026-05-08 13:46 | 14.46812 | 120.94664 | 1208 ft | 142 kts | 63° |
| 2026-05-08 13:46 | 14.47301 | 120.95543 | 1025 ft | 141 kts | 63° |
| 2026-05-08 13:46 | 14.47786 | 120.96424 | 895 ft | 142 kts | 63° |
| 2026-05-08 13:46 | 14.47950 | 120.96726 | 826 ft | 142 kts | 62° |
| 2026-05-08 13:47 | 14.48235 | 120.97252 | 780 ft | 139 kts | 68° |
| 2026-05-08 13:47 | 14.48746 | 120.98133 | 525 ft | 144 kts | 61° |
| 2026-05-08 13:47 | 14.49237 | 120.99020 | 353 ft | 142 kts | 63° |
| 2026-05-08 13:47 | 14.49734 | 120.99909 | 174 ft | 144 kts | 64° |
| 2026-05-08 13:48 | 14.50197 | 121.00745 | 64 ft | 133 kts | 61° |
| 2026-05-08 13:48 | 14.50578 | 121.01433 | 62 ft | 84 kts | 60° |
| 2026-05-08 13:48 | 14.50771 | 121.01708 | 68 ft | 26 kts | 34° |
| 2026-05-08 13:48 | 14.50891 | 121.01771 | 63 ft | 16 kts | 342° |
| 2026-05-08 13:49 | 14.50973 | 121.01704 | 66 ft | 14 kts | 315° |
| 2026-05-08 13:49 | 14.51037 | 121.01636 | 60 ft | 12 kts | 314° |
| 2026-05-08 13:49 | 14.51093 | 121.01577 | 60 ft | 11 kts | 315° |
| 2026-05-08 13:49 | 14.51144 | 121.01524 | 64 ft | 10 kts | 315° |
| 2026-05-08 13:50 | 14.51190 | 121.01478 | 65 ft | 8 kts | 315° |
| 2026-05-08 13:50 | 14.51206 | 121.01461 | 63 ft | 0 kts | 315° |
| 2026-05-08 13:51 | 14.51207 | 121.01460 | 63 ft | 2 kts | 315° |
| 2026-05-08 13:51 | 14.51229 | 121.01440 | 63 ft | 11 kts | 322° |
| 2026-05-08 13:51 | 14.51328 | 121.01480 | 64 ft | 19 kts | 48° |
| 2026-05-08 13:52 | 14.51411 | 121.01574 | 67 ft | 15 kts | 37° |
| 2026-05-08 13:52 | 14.51495 | 121.01550 | 63 ft | 13 kts | 316° |
| 2026-05-08 13:52 | 14.51555 | 121.01487 | 61 ft | 12 kts | 314° |
| 2026-05-08 13:52 | 14.51622 | 121.01417 | 66 ft | 17 kts | 315° |
| 2026-05-08 13:53 | 14.51703 | 121.01336 | 69 ft | 16 kts | 315° |
| 2026-05-08 13:53 | 14.51778 | 121.01259 | 61 ft | 15 kts | 315° |
| 2026-05-08 13:53 | 14.51846 | 121.01187 | 63 ft | 13 kts | 315° |
| 2026-05-08 13:53 | 14.51909 | 121.01123 | 62 ft | 12 kts | 315° |
| 2026-05-08 13:54 | 14.51966 | 121.01065 | 61 ft | 11 kts | 315° |
| 2026-05-08 13:54 | 14.52017 | 121.01012 | 59 ft | 10 kts | 314° |
| 2026-05-08 13:54 | 14.52071 | 121.00956 | 62 ft | 14 kts | 315° |
| 2026-05-08 13:54 | 14.52130 | 121.00931 | 67 ft | 8 kts | 39° |
| 2026-05-08 13:55 | 14.52171 | 121.00971 | 61 ft | 8 kts | 45° |
| 2026-05-08 13:55 | 14.52190 | 121.00992 | 68 ft | 0 kts | 45° |